sensor_id;sensor_type;location;lat;lon;timestamp;pressure;altitude;pressure_sealevel;temperature;humidity
11444;BME280;5778;47.856;12.154;2023-02-14T00:02:13;98186.25;;;1.58;100.00
11444;BME280;5778;47.856;12.154;2023-02-14T00:04:40;98192.44;;;1.57;100.00
11444;BME280;5778;47.856;12.154;2023-02-14T00:07:10;98187.19;;;1.57;100.00
11444;BME280;5778;47.856;12.154;2023-02-14T00:09:37;98191.91;;;1.53;100.00
11444;BME280;5778;47.856;12.154;2023-02-14T00:12:04;98176.56;;;1.41;100.00
11444;BME280;5778;47.856;12.154;2023-02-14T00:14:32;98169.66;;;1.40;100.00
11444;BME280;5778;47.856;12.154;2023-02-14T00:17:17;98174.25;;;1.38;100.00
11444;BME280;5778;47.856;12.154;2023-02-14T00:19:44;98167.44;;;1.45;100.00
11444;BME280;5778;47.856;12.154;2023-02-14T00:22:11;98169.44;;;1.51;100.00
11444;BME280;5778;47.856;12.154;2023-02-14T00:24:38;98181.28;;;1.55;100.00
11444;BME280;5778;47.856;12.154;2023-02-14T00:27:05;98179.63;;;1.54;100.00
11444;BME280;5778;47.856;12.154;2023-02-14T00:29:32;98183.28;;;1.61;100.00
11444;BME280;5778;47.856;12.154;2023-02-14T00:32:00;98188.09;;;1.48;100.00
11444;BME280;5778;47.856;12.154;2023-02-14T00:34:29;98187.94;;;1.49;100.00
11444;BME280;5778;47.856;12.154;2023-02-14T00:36:57;98190.28;;;1.52;100.00
11444;BME280;5778;47.856;12.154;2023-02-14T00:39:25;98183.28;;;1.61;100.00
11444;BME280;5778;47.856;12.154;2023-02-14T00:41:52;98179.25;;;1.49;100.00
11444;BME280;5778;47.856;12.154;2023-02-14T00:44:19;98177.91;;;1.45;100.00
11444;BME280;5778;47.856;12.154;2023-02-14T00:46:46;98173.00;;;1.42;100.00
11444;BME280;5778;47.856;12.154;2023-02-14T00:49:13;98171.41;;;1.49;100.00
11444;BME280;5778;47.856;12.154;2023-02-14T00:51:41;98166.81;;;1.51;100.00
11444;BME280;5778;47.856;12.154;2023-02-14T00:54:08;98165.84;;;1.52;100.00
11444;BME280;5778;47.856;12.154;2023-02-14T00:56:36;98160.78;;;1.50;100.00
11444;BME280;5778;47.856;12.154;2023-02-14T00:59:03;98162.19;;;1.45;100.00
11444;BME280;5778;47.856;12.154;2023-02-14T01:01:30;98166.22;;;1.22;100.00
11444;BME280;5778;47.856;12.154;2023-02-14T01:03:57;98178.78;;;1.36;100.00
11444;BME280;5778;47.856;12.154;2023-02-14T01:06:24;98177.84;;;1.37;100.00
11444;BME280;5778;47.856;12.154;2023-02-14T01:08:53;98187.34;;;1.38;100.00
11444;BME280;5778;47.856;12.154;2023-02-14T01:11:22;98186.66;;;1.36;100.00
11444;BME280;5778;47.856;12.154;2023-02-14T01:13:56;98195.13;;;1.30;100.00
11444;BME280;5778;47.856;12.154;2023-02-14T01:16:25;98193.88;;;1.34;100.00
11444;BME280;5778;47.856;12.154;2023-02-14T01:18:54;98192.81;;;1.27;100.00
11444;BME280;5778;47.856;12.154;2023-02-14T01:21:23;98209.22;;;1.29;100.00
11444;BME280;5778;47.856;12.154;2023-02-14T01:23:54;98200.78;;;1.08;100.00
11444;BME280;5778;47.856;12.154;2023-02-14T01:26:23;98211.78;;;1.11;100.00
11444;BME280;5778;47.856;12.154;2023-02-14T01:28:50;98206.56;;;1.11;100.00
11444;BME280;5778;47.856;12.154;2023-02-14T01:31:19;98212.94;;;1.09;100.00
11444;BME280;5778;47.856;12.154;2023-02-14T01:33:48;98212.88;;;1.18;100.00
11444;BME280;5778;47.856;12.154;2023-02-14T01:36:17;98201.94;;;1.23;100.00
11444;BME280;5778;47.856;12.154;2023-02-14T01:38:44;98211.44;;;1.24;100.00
11444;BME280;5778;47.856;12.154;2023-02-14T01:41:13;98210.41;;;1.17;100.00
11444;BME280;5778;47.856;12.154;2023-02-14T01:43:54;98204.09;;;1.10;100.00
11444;BME280;5778;47.856;12.154;2023-02-14T01:46:23;98197.38;;;1.07;100.00
11444;BME280;5778;47.856;12.154;2023-02-14T01:48:53;98196.91;;;1.12;100.00
11444;BME280;5778;47.856;12.154;2023-02-14T01:51:21;98205.94;;;1.00;100.00
11444;BME280;5778;47.856;12.154;2023-02-14T01:53:52;98200.59;;;1.19;100.00
11444;BME280;5778;47.856;12.154;2023-02-14T01:56:25;98189.44;;;1.17;100.00
11444;BME280;5778;47.856;12.154;2023-02-14T01:58:55;98192.25;;;1.06;100.00
11444;BME280;5778;47.856;12.154;2023-02-14T02:01:26;98196.63;;;1.15;100.00
11444;BME280;5778;47.856;12.154;2023-02-14T02:03:55;98199.91;;;1.17;100.00
11444;BME280;5778;47.856;12.154;2023-02-14T02:06:27;98196.03;;;1.21;100.00
11444;BME280;5778;47.856;12.154;2023-02-14T02:09:02;98195.50;;;1.17;100.00
11444;BME280;5778;47.856;12.154;2023-02-14T02:11:34;98187.72;;;1.25;100.00
11444;BME280;5778;47.856;12.154;2023-02-14T02:14:03;98191.56;;;1.31;100.00
11444;BME280;5778;47.856;12.154;2023-02-14T02:19:53;98174.31;;;1.11;100.00
11444;BME280;5778;47.856;12.154;2023-02-14T02:25:55;98172.22;;;1.14;100.00
11444;BME280;5778;47.856;12.154;2023-02-14T02:31:58;98160.06;;;0.96;100.00
11444;BME280;5778;47.856;12.154;2023-02-14T02:37:41;98175.50;;;0.99;100.00
11444;BME280;5778;47.856;12.154;2023-02-14T02:40:26;98164.44;;;1.05;100.00
11444;BME280;5778;47.856;12.154;2023-02-14T02:43:05;98171.84;;;1.09;100.00
11444;BME280;5778;47.856;12.154;2023-02-14T02:45:38;98167.94;;;1.13;100.00
11444;BME280;5778;47.856;12.154;2023-02-14T02:48:33;98170.94;;;1.18;100.00
11444;BME280;5778;47.856;12.154;2023-02-14T02:51:09;98174.75;;;1.24;100.00
11444;BME280;5778;47.856;12.154;2023-02-14T02:54:03;98162.63;;;1.23;100.00
11444;BME280;5778;47.856;12.154;2023-02-14T02:56:34;98168.75;;;1.14;100.00
11444;BME280;5778;47.856;12.154;2023-02-14T02:59:18;98162.94;;;1.20;100.00
11444;BME280;5778;47.856;12.154;2023-02-14T03:01:58;98155.75;;;1.22;100.00
11444;BME280;5778;47.856;12.154;2023-02-14T03:04:32;98152.75;;;1.17;100.00
11444;BME280;5778;47.856;12.154;2023-02-14T03:07:18;98158.59;;;1.11;100.00
11444;BME280;5778;47.856;12.154;2023-02-14T03:10:12;98151.47;;;1.03;100.00
11444;BME280;5778;47.856;12.154;2023-02-14T03:15:51;98150.34;;;1.06;100.00
11444;BME280;5778;47.856;12.154;2023-02-14T03:18:31;98150.44;;;0.96;100.00
11444;BME280;5778;47.856;12.154;2023-02-14T03:21:27;98147.28;;;1.10;100.00
11444;BME280;5778;47.856;12.154;2023-02-14T03:24:04;98153.72;;;1.16;100.00
11444;BME280;5778;47.856;12.154;2023-02-14T03:26:41;98154.13;;;1.21;100.00
11444;BME280;5778;47.856;12.154;2023-02-14T03:29:15;98157.41;;;1.23;100.00
11444;BME280;5778;47.856;12.154;2023-02-14T03:31:54;98147.00;;;1.13;100.00
11444;BME280;5778;47.856;12.154;2023-02-14T03:34:30;98145.78;;;1.08;100.00
11444;BME280;5778;47.856;12.154;2023-02-14T03:37:01;98150.50;;;1.22;100.00
11444;BME280;5778;47.856;12.154;2023-02-14T03:39:38;98158.22;;;1.23;100.00
11444;BME280;5778;47.856;12.154;2023-02-14T03:42:14;98161.22;;;1.11;100.00
11444;BME280;5778;47.856;12.154;2023-02-14T03:44:46;98161.66;;;1.24;100.00
11444;BME280;5778;47.856;12.154;2023-02-14T03:47:17;98168.91;;;1.30;100.00
11444;BME280;5778;47.856;12.154;2023-02-14T03:49:50;98172.38;;;1.30;100.00
11444;BME280;5778;47.856;12.154;2023-02-14T03:52:20;98166.22;;;1.22;100.00
11444;BME280;5778;47.856;12.154;2023-02-14T03:54:49;98166.53;;;1.19;100.00
11444;BME280;5778;47.856;12.154;2023-02-14T03:57:24;98157.53;;;1.21;100.00
11444;BME280;5778;47.856;12.154;2023-02-14T03:59:54;98151.41;;;1.13;100.00
11444;BME280;5778;47.856;12.154;2023-02-14T04:02:24;98157.38;;;1.05;100.00
11444;BME280;5778;47.856;12.154;2023-02-14T04:04:53;98150.06;;;1.09;100.00
11444;BME280;5778;47.856;12.154;2023-02-14T04:07:25;98145.41;;;1.20;100.00
11444;BME280;5778;47.856;12.154;2023-02-14T04:09:51;98149.31;;;0.99;100.00
11444;BME280;5778;47.856;12.154;2023-02-14T04:12:19;98149.38;;;1.07;100.00
11444;BME280;5778;47.856;12.154;2023-02-14T04:14:47;98144.59;;;1.02;100.00
11444;BME280;5778;47.856;12.154;2023-02-14T04:17:17;98156.34;;;1.16;100.00
11444;BME280;5778;47.856;12.154;2023-02-14T04:20:02;98153.03;;;1.14;100.00
11444;BME280;5778;47.856;12.154;2023-02-14T04:22:30;98153.59;;;1.17;100.00
11444;BME280;5778;47.856;12.154;2023-02-14T04:24:57;98151.72;;;1.10;100.00
11444;BME280;5778;47.856;12.154;2023-02-14T04:27:24;98157.47;;;1.13;100.00
11444;BME280;5778;47.856;12.154;2023-02-14T04:29:55;98157.34;;;1.15;100.00
11444;BME280;5778;47.856;12.154;2023-02-14T04:32:22;98148.13;;;1.11;100.00
11444;BME280;5778;47.856;12.154;2023-02-14T04:34:50;98147.13;;;1.12;100.00
11444;BME280;5778;47.856;12.154;2023-02-14T04:37:18;98147.78;;;1.14;100.00
11444;BME280;5778;47.856;12.154;2023-02-14T04:39:46;98136.00;;;1.10;100.00
11444;BME280;5778;47.856;12.154;2023-02-14T04:42:14;98132.53;;;1.09;100.00
11444;BME280;5778;47.856;12.154;2023-02-14T04:44:41;98139.03;;;1.05;100.00
11444;BME280;5778;47.856;12.154;2023-02-14T04:47:09;98134.63;;;1.06;100.00
11444;BME280;5778;47.856;12.154;2023-02-14T04:49:36;98134.53;;;0.98;100.00
11444;BME280;5778;47.856;12.154;2023-02-14T04:52:04;98134.47;;;0.90;100.00
11444;BME280;5778;47.856;12.154;2023-02-14T04:54:31;98141.28;;;1.18;100.00
11444;BME280;5778;47.856;12.154;2023-02-14T04:56:58;98126.16;;;0.94;100.00
11444;BME280;5778;47.856;12.154;2023-02-14T04:59:26;98129.81;;;0.84;100.00
11444;BME280;5778;47.856;12.154;2023-02-14T05:01:53;98137.91;;;0.90;100.00
11444;BME280;5778;47.856;12.154;2023-02-14T05:04:21;98129.63;;;0.95;100.00
11444;BME280;5778;47.856;12.154;2023-02-14T05:06:49;98128.19;;;1.00;100.00
11444;BME280;5778;47.856;12.154;2023-02-14T05:09:16;98133.00;;;1.05;100.00
11444;BME280;5778;47.856;12.154;2023-02-14T05:11:43;98124.63;;;1.01;100.00
11444;BME280;5778;47.856;12.154;2023-02-14T05:14:10;98125.63;;;0.91;100.00
11444;BME280;5778;47.856;12.154;2023-02-14T05:16:38;98134.19;;;0.93;100.00
11444;BME280;5778;47.856;12.154;2023-02-14T05:19:04;98128.88;;;1.02;100.00
11444;BME280;5778;47.856;12.154;2023-02-14T05:21:33;98132.84;;;1.06;100.00
11444;BME280;5778;47.856;12.154;2023-02-14T05:24:00;98135.91;;;1.02;100.00
11444;BME280;5778;47.856;12.154;2023-02-14T05:26:27;98131.03;;;1.07;100.00
11444;BME280;5778;47.856;12.154;2023-02-14T05:28:54;98123.50;;;1.04;100.00
11444;BME280;5778;47.856;12.154;2023-02-14T05:31:21;98136.59;;;1.04;100.00
11444;BME280;5778;47.856;12.154;2023-02-14T05:33:48;98136.28;;;1.07;100.00
11444;BME280;5778;47.856;12.154;2023-02-14T05:36:15;98135.69;;;1.13;100.00
11444;BME280;5778;47.856;12.154;2023-02-14T05:38:43;98129.91;;;1.09;100.00
11444;BME280;5778;47.856;12.154;2023-02-14T05:41:10;98132.91;;;1.14;100.00
11444;BME280;5778;47.856;12.154;2023-02-14T05:46:04;98138.00;;;1.16;100.00
11444;BME280;5778;47.856;12.154;2023-02-14T05:48:31;98130.00;;;1.17;100.00
11444;BME280;5778;47.856;12.154;2023-02-14T05:51:02;98135.38;;;1.16;100.00
11444;BME280;5778;47.856;12.154;2023-02-14T05:53:30;98136.16;;;1.26;100.00
11444;BME280;5778;47.856;12.154;2023-02-14T05:55:58;98131.66;;;1.18;100.00
11444;BME280;5778;47.856;12.154;2023-02-14T05:58:25;98130.66;;;1.02;100.00
11444;BME280;5778;47.856;12.154;2023-02-14T06:00:52;98133.59;;;0.99;100.00
11444;BME280;5778;47.856;12.154;2023-02-14T06:03:19;98134.75;;;0.87;100.00
11444;BME280;5778;47.856;12.154;2023-02-14T06:05:46;98133.34;;;0.92;100.00
11444;BME280;5778;47.856;12.154;2023-02-14T06:08:13;98143.16;;;1.08;100.00
11444;BME280;5778;47.856;12.154;2023-02-14T06:10:40;98152.50;;;1.10;100.00
11444;BME280;5778;47.856;12.154;2023-02-14T06:13:10;98147.28;;;1.10;100.00
11444;BME280;5778;47.856;12.154;2023-02-14T06:15:37;98144.88;;;0.99;100.00
11444;BME280;5778;47.856;12.154;2023-02-14T06:18:04;98143.78;;;0.75;100.00
11444;BME280;5778;47.856;12.154;2023-02-14T06:20:31;98146.72;;;0.72;100.00
11444;BME280;5778;47.856;12.154;2023-02-14T06:22:58;98144.31;;;0.61;100.00
11444;BME280;5778;47.856;12.154;2023-02-14T06:25:25;98149.41;;;0.53;100.00
11444;BME280;5778;47.856;12.154;2023-02-14T06:27:54;98150.31;;;0.44;100.00
11444;BME280;5778;47.856;12.154;2023-02-14T06:30:24;98151.50;;;0.49;100.00
11444;BME280;5778;47.856;12.154;2023-02-14T06:32:51;98152.34;;;0.50;100.00
11444;BME280;5778;47.856;12.154;2023-02-14T06:35:18;98148.06;;;0.76;100.00
11444;BME280;5778;47.856;12.154;2023-02-14T06:37:45;98144.56;;;0.85;100.00
11444;BME280;5778;47.856;12.154;2023-02-14T06:40:12;98145.91;;;0.89;100.00
11444;BME280;5778;47.856;12.154;2023-02-14T06:42:39;98145.22;;;0.87;100.00
11444;BME280;5778;47.856;12.154;2023-02-14T06:45:07;98146.91;;;0.88;100.00
11444;BME280;5778;47.856;12.154;2023-02-14T06:47:37;98145.59;;;0.92;100.00
11444;BME280;5778;47.856;12.154;2023-02-14T06:50:05;98152.00;;;1.07;100.00
11444;BME280;5778;47.856;12.154;2023-02-14T06:52:32;98156.94;;;1.10;100.00
11444;BME280;5778;47.856;12.154;2023-02-14T06:55:00;98160.22;;;1.12;100.00
11444;BME280;5778;47.856;12.154;2023-02-14T06:57:26;98157.72;;;1.20;100.00
11444;BME280;5778;47.856;12.154;2023-02-14T06:59:53;98161.28;;;1.19;100.00
11444;BME280;5778;47.856;12.154;2023-02-14T07:02:20;98163.53;;;1.14;100.00
11444;BME280;5778;47.856;12.154;2023-02-14T07:04:49;98164.00;;;1.27;100.00
11444;BME280;5778;47.856;12.154;2023-02-14T07:07:16;98161.59;;;1.33;100.00
11444;BME280;5778;47.856;12.154;2023-02-14T07:09:42;98157.16;;;1.34;100.00
11444;BME280;5778;47.856;12.154;2023-02-14T07:12:09;98165.34;;;1.31;100.00
11444;BME280;5778;47.856;12.154;2023-02-14T07:14:36;98160.09;;;1.31;100.00
11444;BME280;5778;47.856;12.154;2023-02-14T07:17:03;98153.78;;;1.24;100.00
11444;BME280;5778;47.856;12.154;2023-02-14T07:19:30;98154.91;;;1.21;100.00
11444;BME280;5778;47.856;12.154;2023-02-14T07:21:58;98152.63;;;1.18;100.00
11444;BME280;5778;47.856;12.154;2023-02-14T07:24:26;98151.41;;;1.13;100.00
11444;BME280;5778;47.856;12.154;2023-02-14T07:26:52;98149.84;;;1.20;100.00
11444;BME280;5778;47.856;12.154;2023-02-14T07:29:19;98145.50;;;1.11;100.00
11444;BME280;5778;47.856;12.154;2023-02-14T07:31:46;98141.38;;;1.08;100.00
11444;BME280;5778;47.856;12.154;2023-02-14T07:34:13;98134.41;;;0.99;100.00
11444;BME280;5778;47.856;12.154;2023-02-14T07:36:40;98134.88;;;1.12;100.00
11444;BME280;5778;47.856;12.154;2023-02-14T07:39:09;98132.91;;;1.32;100.00
11444;BME280;5778;47.856;12.154;2023-02-14T07:41:36;98138.69;;;1.35;100.00
11444;BME280;5778;47.856;12.154;2023-02-14T07:44:09;98135.03;;;1.28;100.00
11444;BME280;5778;47.856;12.154;2023-02-14T07:46:36;98138.59;;;1.45;100.00
11444;BME280;5778;47.856;12.154;2023-02-14T07:49:03;98139.06;;;1.40;100.00
11444;BME280;5778;47.856;12.154;2023-02-14T07:51:30;98132.22;;;1.30;100.00
11444;BME280;5778;47.856;12.154;2023-02-14T07:53:57;98127.16;;;1.28;100.00
11444;BME280;5778;47.856;12.154;2023-02-14T07:56:25;98134.78;;;1.39;100.00
11444;BME280;5778;47.856;12.154;2023-02-14T07:58:52;98130.56;;;1.64;100.00
11444;BME280;5778;47.856;12.154;2023-02-14T08:01:19;98138.81;;;1.51;100.00
11444;BME280;5778;47.856;12.154;2023-02-14T08:03:46;98129.97;;;1.35;100.00
11444;BME280;5778;47.856;12.154;2023-02-14T08:06:16;98132.97;;;1.57;100.00
11444;BME280;5778;47.856;12.154;2023-02-14T08:08:44;98136.41;;;1.58;100.00
11444;BME280;5778;47.856;12.154;2023-02-14T08:11:11;98125.25;;;1.81;100.00
11444;BME280;5778;47.856;12.154;2023-02-14T08:14:00;98133.75;;;1.75;100.00
11444;BME280;5778;47.856;12.154;2023-02-14T08:16:27;98121.63;;;1.74;100.00
11444;BME280;5778;47.856;12.154;2023-02-14T08:18:54;98123.63;;;1.80;100.00
11444;BME280;5778;47.856;12.154;2023-02-14T08:21:21;98119.88;;;1.83;100.00
11444;BME280;5778;47.856;12.154;2023-02-14T08:23:47;98113.03;;;1.90;100.00
11444;BME280;5778;47.856;12.154;2023-02-14T08:26:14;98108.13;;;1.95;100.00
11444;BME280;5778;47.856;12.154;2023-02-14T08:28:41;98105.88;;;2.00;100.00
11444;BME280;5778;47.856;12.154;2023-02-14T08:31:10;98111.00;;;2.09;100.00
11444;BME280;5778;47.856;12.154;2023-02-14T08:33:37;98105.53;;;2.28;100.00
11444;BME280;5778;47.856;12.154;2023-02-14T08:36:04;98102.63;;;2.31;100.00
11444;BME280;5778;47.856;12.154;2023-02-14T08:38:31;98097.09;;;2.50;100.00
11444;BME280;5778;47.856;12.154;2023-02-14T08:40:59;98105.53;;;2.70;100.00
11444;BME280;5778;47.856;12.154;2023-02-14T08:43:27;98107.22;;;2.79;100.00
11444;BME280;5778;47.856;12.154;2023-02-14T08:45:53;98101.81;;;2.88;100.00
11444;BME280;5778;47.856;12.154;2023-02-14T08:48:22;98102.13;;;2.85;100.00
11444;BME280;5778;47.856;12.154;2023-02-14T08:50:51;98105.19;;;2.65;100.00
11444;BME280;5778;47.856;12.154;2023-02-14T08:53:19;98093.03;;;2.56;100.00
11444;BME280;5778;47.856;12.154;2023-02-14T08:55:46;98095.97;;;2.61;100.00
11444;BME280;5778;47.856;12.154;2023-02-14T08:58:13;98091.72;;;2.60;100.00
11444;BME280;5778;47.856;12.154;2023-02-14T09:00:40;98097.00;;;2.68;100.00
11444;BME280;5778;47.856;12.154;2023-02-14T09:03:07;98095.91;;;2.86;100.00
11444;BME280;5778;47.856;12.154;2023-02-14T09:05:36;98089.19;;;3.00;100.00
11444;BME280;5778;47.856;12.154;2023-02-14T09:08:03;98082.94;;;3.01;100.00
11444;BME280;5778;47.856;12.154;2023-02-14T09:10:30;98086.44;;;3.25;100.00
11444;BME280;5778;47.856;12.154;2023-02-14T09:12:58;98092.34;;;3.35;100.00
11444;BME280;5778;47.856;12.154;2023-02-14T09:15:25;98091.84;;;3.48;100.00
11444;BME280;5778;47.856;12.154;2023-02-14T09:17:52;98082.94;;;3.89;100.00
11444;BME280;5778;47.856;12.154;2023-02-14T09:20:19;98077.31;;;4.00;100.00
11444;BME280;5778;47.856;12.154;2023-02-14T09:22:48;98072.75;;;4.32;100.00
11444;BME280;5778;47.856;12.154;2023-02-14T09:25:15;98074.53;;;4.40;100.00
11444;BME280;5778;47.856;12.154;2023-02-14T09:27:42;98078.47;;;4.44;100.00
11444;BME280;5778;47.856;12.154;2023-02-14T09:30:10;98076.63;;;4.14;100.00
11444;BME280;5778;47.856;12.154;2023-02-14T09:32:37;98073.16;;;4.52;100.00
11444;BME280;5778;47.856;12.154;2023-02-14T09:35:05;98076.50;;;3.83;100.00
11444;BME280;5778;47.856;12.154;2023-02-14T09:37:51;98074.28;;;4.27;100.00
11444;BME280;5778;47.856;12.154;2023-02-14T09:40:18;98071.00;;;4.25;100.00
11444;BME280;5778;47.856;12.154;2023-02-14T09:42:55;98074.53;;;4.01;100.00
11444;BME280;5778;47.856;12.154;2023-02-14T09:45:27;98077.97;;;3.86;100.00
11444;BME280;5778;47.856;12.154;2023-02-14T09:47:56;98067.06;;;4.21;100.00
11444;BME280;5778;47.856;12.154;2023-02-14T09:50:28;98070.72;;;4.50;100.00
11444;BME280;5778;47.856;12.154;2023-02-14T09:53:07;98069.13;;;4.72;100.00
11444;BME280;5778;47.856;12.154;2023-02-14T09:55:41;98067.16;;;4.74;100.00
11444;BME280;5778;47.856;12.154;2023-02-14T09:58:14;98074.44;;;4.94;100.00
11444;BME280;5778;47.856;12.154;2023-02-14T10:00:45;98073.16;;;5.13;100.00
11444;BME280;5778;47.856;12.154;2023-02-14T10:03:41;98065.56;;;5.18;100.00
11444;BME280;5778;47.856;12.154;2023-02-14T10:06:28;98069.28;;;5.46;100.00
11444;BME280;5778;47.856;12.154;2023-02-14T10:09:06;98070.19;;;5.53;100.00
11444;BME280;5778;47.856;12.154;2023-02-14T10:11:37;98065.94;;;5.52;100.00
11444;BME280;5778;47.856;12.154;2023-02-14T10:14:10;98061.22;;;5.62;100.00
11444;BME280;5778;47.856;12.154;2023-02-14T10:16:43;98060.75;;;5.81;100.00
11444;BME280;5778;47.856;12.154;2023-02-14T10:19:16;98063.03;;;5.84;100.00
11444;BME280;5778;47.856;12.154;2023-02-14T10:21:49;98055.53;;;5.73;100.00
11444;BME280;5778;47.856;12.154;2023-02-14T10:24:24;98061.03;;;5.86;100.00
11444;BME280;5778;47.856;12.154;2023-02-14T10:26:55;98051.47;;;5.99;100.00
11444;BME280;5778;47.856;12.154;2023-02-14T10:29:26;98058.78;;;6.12;100.00
11444;BME280;5778;47.856;12.154;2023-02-14T10:31:57;98054.03;;;6.07;100.00
11444;BME280;5778;47.856;12.154;2023-02-14T10:34:31;98050.41;;;6.08;100.00
11444;BME280;5778;47.856;12.154;2023-02-14T10:37:15;98047.09;;;6.06;100.00
11444;BME280;5778;47.856;12.154;2023-02-14T10:39:58;98044.47;;;6.21;100.00
11444;BME280;5778;47.856;12.154;2023-02-14T10:42:35;98048.38;;;6.39;100.00
11444;BME280;5778;47.856;12.154;2023-02-14T10:45:15;98042.53;;;6.44;100.00
11444;BME280;5778;47.856;12.154;2023-02-14T10:47:50;98041.97;;;6.48;100.00
11444;BME280;5778;47.856;12.154;2023-02-14T10:50:25;98036.44;;;6.43;100.00
11444;BME280;5778;47.856;12.154;2023-02-14T10:53:02;98032.66;;;6.67;100.00
11444;BME280;5778;47.856;12.154;2023-02-14T10:55:41;98039.75;;;6.66;100.00
11444;BME280;5778;47.856;12.154;2023-02-14T10:58:13;98026.25;;;6.97;100.00
11444;BME280;5778;47.856;12.154;2023-02-14T11:00:49;98022.50;;;7.06;100.00
11444;BME280;5778;47.856;12.154;2023-02-14T11:03:19;98017.97;;;7.21;100.00
11444;BME280;5778;47.856;12.154;2023-02-14T11:05:47;98021.75;;;7.33;100.00
11444;BME280;5778;47.856;12.154;2023-02-14T11:08:18;98013.78;;;7.54;100.00
11444;BME280;5778;47.856;12.154;2023-02-14T11:10:49;98012.16;;;7.32;100.00
11444;BME280;5778;47.856;12.154;2023-02-14T11:13:27;98008.13;;;7.36;100.00
11444;BME280;5778;47.856;12.154;2023-02-14T11:15:58;98002.31;;;7.47;100.00
11444;BME280;5778;47.856;12.154;2023-02-14T11:18:26;98000.81;;;7.38;100.00
11444;BME280;5778;47.856;12.154;2023-02-14T11:21:02;97998.34;;;7.91;100.00
11444;BME280;5778;47.856;12.154;2023-02-14T11:23:32;97988.09;;;8.16;100.00
11444;BME280;5778;47.856;12.154;2023-02-14T11:26:03;97979.00;;;8.25;100.00
11444;BME280;5778;47.856;12.154;2023-02-14T11:28:31;97994.91;;;7.97;100.00
11444;BME280;5778;47.856;12.154;2023-02-14T11:30:59;97987.81;;;7.98;100.00
11444;BME280;5778;47.856;12.154;2023-02-14T11:33:33;97987.47;;;8.14;100.00
11444;BME280;5778;47.856;12.154;2023-02-14T11:36:04;97978.78;;;7.86;100.00
11444;BME280;5778;47.856;12.154;2023-02-14T11:38:33;97970.22;;;8.24;100.00
11444;BME280;5778;47.856;12.154;2023-02-14T11:41:05;97971.56;;;8.48;100.00
11444;BME280;5778;47.856;12.154;2023-02-14T11:43:34;97968.75;;;8.56;100.00
11444;BME280;5778;47.856;12.154;2023-02-14T11:48:54;97967.28;;;8.47;100.00
11444;BME280;5778;47.856;12.154;2023-02-14T11:51:26;97964.44;;;8.48;100.00
11444;BME280;5778;47.856;12.154;2023-02-14T11:53:56;97964.25;;;8.63;100.00
11444;BME280;5778;47.856;12.154;2023-02-14T11:56:43;97951.25;;;8.81;100.00
11444;BME280;5778;47.856;12.154;2023-02-14T11:59:26;97956.72;;;8.66;100.00
11444;BME280;5778;47.856;12.154;2023-02-14T12:01:55;97948.81;;;8.92;100.00
11444;BME280;5778;47.856;12.154;2023-02-14T12:04:31;97949.22;;;8.96;100.00
11444;BME280;5778;47.856;12.154;2023-02-14T12:07:15;97945.34;;;8.98;100.00
11444;BME280;5778;47.856;12.154;2023-02-14T12:09:43;97944.13;;;8.81;100.00
11444;BME280;5778;47.856;12.154;2023-02-14T12:12:19;97939.44;;;8.96;100.00
11444;BME280;5778;47.856;12.154;2023-02-14T12:14:48;97927.81;;;9.30;100.00
11444;BME280;5778;47.856;12.154;2023-02-14T12:17:22;97927.81;;;9.36;100.00
11444;BME280;5778;47.856;12.154;2023-02-14T12:19:55;97926.38;;;9.47;100.00
11444;BME280;5778;47.856;12.154;2023-02-14T12:22:28;97926.56;;;9.52;100.00
11444;BME280;5778;47.856;12.154;2023-02-14T12:25:02;97920.63;;;9.69;100.00
11444;BME280;5778;47.856;12.154;2023-02-14T12:27:39;97920.19;;;9.85;100.00
11444;BME280;5778;47.856;12.154;2023-02-14T12:30:14;97918.31;;;9.99;100.00
11444;BME280;5778;47.856;12.154;2023-02-14T12:32:46;97919.97;;;9.87;100.00
11444;BME280;5778;47.856;12.154;2023-02-14T12:35:15;97916.88;;;9.90;100.00
11444;BME280;5778;47.856;12.154;2023-02-14T12:37:59;97911.97;;;10.06;100.00
11444;BME280;5778;47.856;12.154;2023-02-14T12:40:39;97910.84;;;10.71;100.00
11444;BME280;5778;47.856;12.154;2023-02-14T12:46:28;97909.03;;;10.65;100.00
11444;BME280;5778;47.856;12.154;2023-02-14T12:49:27;97895.88;;;10.76;100.00
11444;BME280;5778;47.856;12.154;2023-02-14T12:52:05;97895.59;;;10.84;100.00
11444;BME280;5778;47.856;12.154;2023-02-14T12:54:47;97902.03;;;11.01;100.00
11444;BME280;5778;47.856;12.154;2023-02-14T12:57:25;97890.56;;;11.01;100.00
11444;BME280;5778;47.856;12.154;2023-02-14T13:00:05;97885.78;;;10.85;100.00
11444;BME280;5778;47.856;12.154;2023-02-14T13:02:55;97880.19;;;11.17;100.00
11444;BME280;5778;47.856;12.154;2023-02-14T13:05:33;97879.94;;;11.01;100.00
11444;BME280;5778;47.856;12.154;2023-02-14T13:08:19;97874.38;;;11.27;100.00
11444;BME280;5778;47.856;12.154;2023-02-14T13:10:54;97867.59;;;11.49;100.00
11444;BME280;5778;47.856;12.154;2023-02-14T13:13:36;97868.72;;;11.66;100.00
11444;BME280;5778;47.856;12.154;2023-02-14T13:16:13;97871.44;;;11.77;100.00
11444;BME280;5778;47.856;12.154;2023-02-14T13:18:47;97863.88;;;11.92;100.00
11444;BME280;5778;47.856;12.154;2023-02-14T13:21:20;97864.56;;;12.06;100.00
11444;BME280;5778;47.856;12.154;2023-02-14T13:23:48;97863.75;;;12.35;100.00
11444;BME280;5778;47.856;12.154;2023-02-14T13:26:19;97861.94;;;12.47;100.00
11444;BME280;5778;47.856;12.154;2023-02-14T13:28:49;97854.19;;;12.45;100.00
11444;BME280;5778;47.856;12.154;2023-02-14T13:31:19;97856.22;;;12.61;100.00
11444;BME280;5778;47.856;12.154;2023-02-14T13:33:49;97852.16;;;12.59;100.00
11444;BME280;5778;47.856;12.154;2023-02-14T13:36:18;97862.19;;;12.86;100.00
11444;BME280;5778;47.856;12.154;2023-02-14T13:38:48;97849.38;;;13.06;100.00
11444;BME280;5778;47.856;12.154;2023-02-14T13:41:16;97849.00;;;12.62;100.00
11444;BME280;5778;47.856;12.154;2023-02-14T13:43:53;97852.78;;;12.84;100.00
11444;BME280;5778;47.856;12.154;2023-02-14T13:46:46;97846.38;;;13.03;100.00